KDTL

Detroit Lakes-Wething Field Airport

Detroit Lakes, Minnesota, USA
METAR KDTL 180215Z AUTO 00000KT 10SM CLR 21/17 A3012 RMK AO2
Observed Flight Rules
Aug-18 @ 02:15 UTC (15 minutes ago) Visual Flight Rules
Visibility Clouds
10 miles
  • Clear skies
Temperatures Readings
Current 21°C / 70°F
Dewpoint 17°C / 63°F
Humidity 78%
Altimeter 30.12" Hg
Pressure 1020 hPa
Elevation 426
METAR KDTL 180215Z AUTO 00000KT 10SM CLR 21/17 A3012 RMK AO2
Observed Flight Rules
Aug-18 @ 02:15 UTC
(15 minutes ago)
VFR
Clouds
  • Clear skies
Temperature Dewpoint
21°C / 70°F 17°C / 63°F
Humidity Altimeter Pressure
78% 30.12" Hg 1020 hPa